createdAt,value
2022-10-22T00:00:39.767Z,0
2022-10-22T00:01:42.934Z,0
2022-10-22T00:02:46.327Z,0
2022-10-22T00:04:21.140Z,0
2022-10-22T00:05:23.904Z,0
2022-10-22T00:06:26.707Z,0
2022-10-22T00:08:01.919Z,0
2022-10-22T00:09:05.541Z,0
2022-10-22T00:10:08.713Z,0
2022-10-22T00:11:43.389Z,0
2022-10-22T00:12:46.357Z,0
2022-10-22T00:13:49.234Z,0
2022-10-22T00:15:23.872Z,0
2022-10-22T00:16:26.591Z,0
2022-10-22T00:17:33.826Z,0
2022-10-22T00:19:08.687Z,0
2022-10-22T00:20:11.427Z,0
2022-10-22T00:21:14.380Z,0
2022-10-22T00:22:49.233Z,0
2022-10-22T00:23:52.592Z,0
2022-10-22T00:24:55.301Z,0
2022-10-22T00:26:29.785Z,0
2022-10-22T00:27:32.501Z,0
2022-10-22T00:28:35.374Z,0
2022-10-22T00:30:10.077Z,0
2022-10-22T00:31:12.951Z,0
2022-10-22T00:32:16.170Z,0
2022-10-22T00:33:51.446Z,0
2022-10-22T00:34:54.206Z,0
2022-10-22T00:35:57.200Z,0
2022-10-22T00:37:31.582Z,0
2022-10-22T00:38:34.440Z,0
2022-10-22T00:39:37.432Z,0
2022-10-22T00:41:13.030Z,0
2022-10-22T00:42:15.943Z,0
2022-10-22T00:43:18.650Z,0
2022-10-22T00:44:53.380Z,0
2022-10-22T00:45:56.207Z,0
2022-10-22T00:46:59.142Z,0
2022-10-22T00:48:33.796Z,0
2022-10-22T00:49:36.522Z,0
2022-10-22T00:50:39.243Z,0
2022-10-22T00:52:14.089Z,0
2022-10-22T00:53:17.011Z,0
2022-10-22T00:54:19.787Z,0
2022-10-22T00:55:54.481Z,0
2022-10-22T00:56:57.636Z,0
2022-10-22T00:58:00.431Z,0
2022-10-22T00:59:35.106Z,0
2022-10-22T01:00:40.709Z,0
2022-10-22T01:01:43.884Z,0
2022-10-22T01:02:47.195Z,0
2022-10-22T01:04:21.934Z,0
2022-10-22T01:05:24.612Z,0
2022-10-22T01:06:27.672Z,0
2022-10-22T01:08:02.578Z,0
2022-10-22T01:09:06.138Z,0
2022-10-22T01:10:09.082Z,0
2022-10-22T01:11:43.931Z,0
2022-10-22T01:12:47.204Z,0
2022-10-22T01:13:49.967Z,0
2022-10-22T01:15:24.572Z,0
2022-10-22T01:16:27.315Z,0
2022-10-22T01:17:30.192Z,0
2022-10-22T01:19:04.646Z,0
2022-10-22T01:20:07.417Z,0
2022-10-22T01:21:10.076Z,0
2022-10-22T01:22:44.421Z,0
2022-10-22T01:23:47.236Z,0
2022-10-22T01:24:50.304Z,0
2022-10-22T01:26:25.350Z,0
2022-10-22T01:27:28.154Z,0
2022-10-22T01:28:30.877Z,0
2022-10-22T01:30:05.413Z,0
2022-10-22T01:31:08.327Z,0
2022-10-22T01:32:11.495Z,0
2022-10-22T01:33:46.116Z,0
2022-10-22T01:34:49.187Z,0
2022-10-22T01:35:52.381Z,0
2022-10-22T01:37:27.123Z,0
2022-10-22T01:38:29.985Z,0
2022-10-22T01:39:32.912Z,0
2022-10-22T01:41:07.443Z,0
2022-10-22T01:42:10.243Z,0
2022-10-22T01:43:13.075Z,0
2022-10-22T01:44:47.993Z,0
2022-10-22T01:45:50.769Z,0
2022-10-22T01:46:53.407Z,0
2022-10-22T01:48:28.114Z,0
2022-10-22T01:49:31.040Z,0
2022-10-22T01:50:33.706Z,0
2022-10-22T01:52:08.197Z,0
2022-10-22T01:53:11.690Z,0
2022-10-22T01:54:14.774Z,0
2022-10-22T01:55:49.394Z,0
2022-10-22T01:56:52.179Z,0
2022-10-22T01:57:55.545Z,0
2022-10-22T01:59:30.035Z,0
2022-10-22T02:00:40.323Z,0
2022-10-22T02:01:43.161Z,0
2022-10-22T02:04:26.302Z,0
2022-10-22T02:05:29.282Z,0
2022-10-22T02:06:32.139Z,0
2022-10-22T02:08:07.414Z,0
2022-10-22T02:09:10.640Z,0
2022-10-22T02:10:13.466Z,0
2022-10-22T02:11:48.607Z,0
2022-10-22T02:12:52.664Z,0
2022-10-22T02:13:55.719Z,0
2022-10-22T02:15:30.203Z,0
2022-10-22T02:16:32.913Z,0
2022-10-22T02:17:35.929Z,0
2022-10-22T02:19:10.529Z,0
2022-10-22T02:20:13.188Z,0
2022-10-22T02:21:16.077Z,0
2022-10-22T02:22:50.923Z,0
2022-10-22T02:23:53.502Z,0
2022-10-22T02:24:56.331Z,0
2022-10-22T02:26:31.105Z,0
2022-10-22T02:27:38.377Z,0
2022-10-22T02:28:41.115Z,0
2022-10-22T02:31:18.626Z,0
2022-10-22T02:32:21.414Z,0
2022-10-22T02:33:56.768Z,0
2022-10-22T02:35:00.143Z,0
2022-10-22T02:36:03.085Z,0
2022-10-22T02:37:37.678Z,0
2022-10-22T02:38:40.810Z,0
2022-10-22T02:39:44.548Z,0
2022-10-22T02:41:19.196Z,0
2022-10-22T02:42:22.087Z,0
2022-10-22T02:43:24.945Z,0
2022-10-22T02:45:00.356Z,0
2022-10-22T02:46:03.408Z,0
2022-10-22T02:47:06.237Z,0
2022-10-22T02:48:40.986Z,0
2022-10-22T02:49:43.711Z,0
2022-10-22T02:50:46.696Z,0
2022-10-22T02:52:21.407Z,0
2022-10-22T02:53:24.111Z,0
2022-10-22T02:54:26.991Z,0
2022-10-22T02:56:01.547Z,0
2022-10-22T02:57:04.606Z,0
2022-10-22T02:58:07.741Z,0
2022-10-22T02:59:42.330Z,0
2022-10-22T03:00:40.813Z,0
2022-10-22T03:01:44.511Z,0
2022-10-22T03:02:47.262Z,0
2022-10-22T03:04:21.869Z,0
2022-10-22T03:05:24.613Z,0
2022-10-22T03:06:27.721Z,0
2022-10-22T03:08:03.301Z,0
2022-10-22T03:09:06.599Z,0
2022-10-22T03:10:09.594Z,0
2022-10-22T03:11:44.201Z,0
2022-10-22T03:12:46.951Z,0
2022-10-22T03:13:49.865Z,0
2022-10-22T03:15:24.389Z,0
2022-10-22T03:16:27.138Z,0
2022-10-22T03:17:29.899Z,0
2022-10-22T03:19:04.443Z,0
2022-10-22T03:20:07.119Z,0
2022-10-22T03:21:10.042Z,0
2022-10-22T03:22:44.575Z,0
2022-10-22T03:23:47.287Z,0
2022-10-22T03:24:50.423Z,0
2022-10-22T03:26:25.043Z,0
2022-10-22T03:27:27.739Z,0
2022-10-22T03:28:30.821Z,0
2022-10-22T03:30:05.455Z,0
2022-10-22T03:31:08.331Z,0
2022-10-22T03:32:11.276Z,0
2022-10-22T03:33:45.707Z,0
2022-10-22T03:34:48.455Z,0
2022-10-22T03:35:51.310Z,0
2022-10-22T03:37:25.781Z,0
2022-10-22T03:38:28.682Z,0
2022-10-22T03:39:31.320Z,0
2022-10-22T03:41:05.685Z,0
2022-10-22T03:42:08.437Z,0
2022-10-22T03:43:11.114Z,0
2022-10-22T03:44:45.968Z,0
2022-10-22T03:45:49.052Z,0
2022-10-22T03:46:51.885Z,0
2022-10-22T03:48:26.510Z,0
2022-10-22T03:49:29.607Z,0
2022-10-22T03:50:32.465Z,0
2022-10-22T03:52:06.971Z,0
2022-10-22T03:53:09.907Z,0
2022-10-22T03:54:12.860Z,0
2022-10-22T03:55:47.527Z,0
2022-10-22T03:56:50.492Z,0
2022-10-22T03:57:54.286Z,0
2022-10-22T03:59:28.707Z,0
2022-10-22T04:00:40.322Z,0
2022-10-22T04:01:43.707Z,0
2022-10-22T04:02:46.629Z,0
2022-10-22T04:04:21.095Z,0
2022-10-22T04:06:11.789Z,0
2022-10-22T04:07:14.831Z,0
2022-10-22T04:08:17.846Z,0
2022-10-22T04:09:53.224Z,0
2022-10-22T04:10:56.413Z,0
2022-10-22T04:11:59.355Z,0
2022-10-22T04:13:34.209Z,0
2022-10-22T04:14:37.239Z,0
2022-10-22T04:15:40.644Z,0
2022-10-22T04:17:15.668Z,0
2022-10-22T04:18:18.785Z,0
2022-10-22T04:19:21.584Z,0
2022-10-22T04:20:56.367Z,0
2022-10-22T04:22:00.466Z,0
2022-10-22T04:23:03.234Z,0
2022-10-22T04:24:37.917Z,0
2022-10-22T04:25:41.094Z,0
2022-10-22T04:26:44.252Z,0
2022-10-22T04:28:19.133Z,0
2022-10-22T04:29:27.431Z,0
2022-10-22T04:30:30.460Z,0
2022-10-22T04:32:05.607Z,0
2022-10-22T04:33:08.640Z,0
2022-10-22T04:34:11.582Z,0
2022-10-22T04:35:46.965Z,0
2022-10-22T04:36:50.049Z,0
2022-10-22T04:37:53.496Z,0
2022-10-22T04:39:28.395Z,0
2022-10-22T04:40:31.359Z,0
2022-10-22T04:41:34.463Z,0
2022-10-22T04:43:09.364Z,0
2022-10-22T04:44:19.313Z,0
2022-10-22T04:45:22.580Z,0
2022-10-22T04:46:57.343Z,0
2022-10-22T04:48:01.025Z,0
2022-10-22T04:49:03.868Z,0
2022-10-22T04:50:38.809Z,0
2022-10-22T04:51:41.858Z,0
2022-10-22T04:52:44.666Z,0
2022-10-22T04:54:21.023Z,0
2022-10-22T04:55:23.999Z,0
2022-10-22T04:56:27.078Z,0
2022-10-22T04:58:02.611Z,0
2022-10-22T04:59:05.691Z,0
2022-10-22T05:00:40.686Z,0
2022-10-22T05:01:49.012Z,0
2022-10-22T05:02:51.807Z,0
2022-10-22T05:04:26.436Z,0
2022-10-22T05:05:29.400Z,0
2022-10-22T05:06:32.722Z,0
2022-10-22T05:08:08.389Z,0
2022-10-22T05:09:12.178Z,0
2022-10-22T05:10:15.506Z,0
2022-10-22T05:11:50.446Z,0
2022-10-22T05:12:53.220Z,0
2022-10-22T05:13:56.405Z,0
2022-10-22T05:15:31.303Z,0
2022-10-22T05:16:34.749Z,0
2022-10-22T05:17:37.902Z,0
2022-10-22T05:19:12.914Z,0
2022-10-22T05:20:16.088Z,0
2022-10-22T05:21:19.034Z,0
2022-10-22T05:22:53.752Z,0
2022-10-22T05:23:56.552Z,0
2022-10-22T05:24:59.774Z,0
2022-10-22T05:26:35.095Z,0
2022-10-22T05:27:38.257Z,0
2022-10-22T05:28:41.397Z,0
2022-10-22T05:30:16.196Z,0
2022-10-22T05:31:19.240Z,0
2022-10-22T05:32:22.032Z,0
2022-10-22T05:33:56.918Z,0
2022-10-22T05:34:59.827Z,0
2022-10-22T05:36:08.143Z,0
2022-10-22T05:37:43.971Z,0
2022-10-22T05:38:47.267Z,0
2022-10-22T05:39:57.614Z,0
2022-10-22T05:41:45.674Z,0
2022-10-22T05:42:49.163Z,0
2022-10-22T05:43:52.095Z,0
2022-10-22T05:45:27.149Z,0
2022-10-22T05:46:34.280Z,0
2022-10-22T05:47:37.213Z,0
2022-10-22T05:49:12.286Z,0
2022-10-22T05:50:15.335Z,0
2022-10-22T05:51:18.363Z,0
2022-10-22T05:52:53.666Z,0
2022-10-22T05:53:56.599Z,0
2022-10-22T05:54:59.672Z,0
2022-10-22T05:56:34.904Z,0
2022-10-22T05:57:37.733Z,0
2022-10-22T05:58:40.785Z,0
2022-10-22T06:00:44.532Z,0
2022-10-22T06:01:47.311Z,0
2022-10-22T06:02:51.159Z,0
2022-10-22T06:04:26.042Z,0
2022-10-22T06:05:29.251Z,0
2022-10-22T06:06:32.075Z,0
2022-10-22T06:08:06.992Z,0
2022-10-22T06:09:10.538Z,0
2022-10-22T06:10:13.566Z,0
2022-10-22T06:11:52.377Z,0
2022-10-22T06:12:55.919Z,0
2022-10-22T06:13:58.874Z,0
2022-10-22T06:15:33.586Z,0
2022-10-22T06:16:36.269Z,0
2022-10-22T06:17:39.432Z,0
2022-10-22T06:19:14.712Z,0
2022-10-22T06:20:17.727Z,0
2022-10-22T06:21:20.753Z,0
2022-10-22T06:22:56.117Z,0
2022-10-22T06:23:59.024Z,0
2022-10-22T06:25:06.928Z,0
2022-10-22T06:26:42.007Z,0
2022-10-22T06:27:45.223Z,0
2022-10-22T06:28:48.330Z,0
2022-10-22T06:30:22.986Z,0
2022-10-22T06:31:26.024Z,0
2022-10-22T06:32:29.016Z,0
2022-10-22T06:34:03.699Z,0
2022-10-22T06:35:06.688Z,0
2022-10-22T06:36:13.487Z,0
2022-10-22T06:37:49.464Z,0
2022-10-22T06:38:52.781Z,0
2022-10-22T06:39:55.681Z,0
2022-10-22T06:41:35.321Z,0
2022-10-22T06:42:38.666Z,0
2022-10-22T06:43:41.739Z,0
2022-10-22T06:45:16.585Z,0
2022-10-22T06:46:25.485Z,0
2022-10-22T06:47:28.303Z,0
2022-10-22T06:49:03.822Z,0
2022-10-22T06:50:06.471Z,0
2022-10-22T06:51:09.281Z,0
2022-10-22T06:52:43.915Z,0
2022-10-22T06:53:46.970Z,0
2022-10-22T06:54:50.049Z,0.435
2022-10-22T06:56:24.640Z,0
2022-10-22T06:57:27.641Z,0
2022-10-22T06:58:30.708Z,0.435
2022-10-22T07:00:40.325Z,0
2022-10-22T07:01:43.852Z,0
2022-10-22T07:02:47.537Z,0
2022-10-22T07:04:22.562Z,0
2022-10-22T07:05:25.360Z,0.435
2022-10-22T07:06:28.208Z,0.435
2022-10-22T07:08:03.674Z,0
2022-10-22T07:09:07.947Z,0.435
2022-10-22T07:10:11.086Z,0
2022-10-22T07:11:46.481Z,0.435
2022-10-22T07:12:50.295Z,0.435
2022-10-22T07:13:53.009Z,0.435
2022-10-22T07:15:27.973Z,0.435
2022-10-22T07:16:37.711Z,0.435
2022-10-22T07:17:41.010Z,0.435
2022-10-22T07:19:15.861Z,0.435
2022-10-22T07:20:20.159Z,0.435
2022-10-22T07:21:23.297Z,0.435
2022-10-22T07:22:58.561Z,0.435
2022-10-22T07:24:01.578Z,0.435
2022-10-22T07:25:09.336Z,0.435
2022-10-22T07:26:44.357Z,0.435
2022-10-22T07:27:48.083Z,0.435
2022-10-22T07:28:51.066Z,0.435
2022-10-22T07:30:25.789Z,0.435
2022-10-22T07:31:28.655Z,0.435
2022-10-22T07:32:35.103Z,0.435
2022-10-22T07:34:10.307Z,0.435
2022-10-22T07:35:13.194Z,0.585
2022-10-22T07:36:16.219Z,0.585
2022-10-22T07:37:51.817Z,0.585
2022-10-22T07:38:54.886Z,0.585
2022-10-22T07:40:02.746Z,0.585
2022-10-22T07:41:38.734Z,0.735
2022-10-22T07:42:41.917Z,0.585
2022-10-22T07:43:45.024Z,0.585
2022-10-22T07:45:20.059Z,0.585
2022-10-22T07:46:23.297Z,0.585
2022-10-22T07:47:26.295Z,0.735
2022-10-22T07:49:01.153Z,0.585
2022-10-22T07:50:04.230Z,0.585
2022-10-22T07:51:07.319Z,0.585
2022-10-22T07:52:42.378Z,0.585
2022-10-22T07:53:45.430Z,0.585
2022-10-22T07:54:48.286Z,0.585
2022-10-22T07:56:23.109Z,0.735
2022-10-22T07:57:25.926Z,0.735
2022-10-22T07:58:28.701Z,0.735
2022-10-22T08:00:44.373Z,0.885
2022-10-22T08:01:47.716Z,0.735
2022-10-22T08:02:51.366Z,0.735
2022-10-22T08:04:26.189Z,0.735
2022-10-22T08:05:29.197Z,0.735
2022-10-22T08:06:32.086Z,0.885
2022-10-22T08:08:07.019Z,0.885
2022-10-22T08:09:10.840Z,0.885
2022-10-22T08:10:13.926Z,0.735
2022-10-22T08:11:49.273Z,0.735
2022-10-22T08:12:52.783Z,0.735
2022-10-22T08:14:01.933Z,0.885
2022-10-22T08:15:37.401Z,1.02
2022-10-22T08:16:40.623Z,1.02
2022-10-22T08:17:44.263Z,1.02
2022-10-22T08:19:19.424Z,1.17
2022-10-22T08:20:22.306Z,1.17
2022-10-22T08:21:25.380Z,1.17
2022-10-22T08:23:00.398Z,1.02
2022-10-22T08:24:03.731Z,1.17
2022-10-22T08:25:06.889Z,1.17
2022-10-22T08:26:41.598Z,1.17
2022-10-22T08:27:44.995Z,1.17
2022-10-22T08:28:50.389Z,1.02
2022-10-22T08:30:25.001Z,1.17
2022-10-22T08:31:27.891Z,1.17
2022-10-22T08:32:31.070Z,1.17
2022-10-22T08:34:08.214Z,1.32
2022-10-22T08:35:12.996Z,1.17
2022-10-22T08:36:18.426Z,1.17
2022-10-22T08:37:53.956Z,1.32
2022-10-22T08:38:56.760Z,1.32
2022-10-22T08:40:00.110Z,1.32
2022-10-22T08:41:34.883Z,1.32
2022-10-22T08:42:38.049Z,1.32
2022-10-22T08:43:40.979Z,1.32
2022-10-22T08:45:15.989Z,1.17
2022-10-22T08:46:18.869Z,1.32
2022-10-22T08:47:27.117Z,1.32
2022-10-22T08:49:02.048Z,1.32
2022-10-22T08:50:09.994Z,1.17
2022-10-22T08:51:12.906Z,1.32
2022-10-22T08:52:48.333Z,1.32
2022-10-22T08:53:51.482Z,1.32
2022-10-22T08:54:54.457Z,1.32
2022-10-22T08:56:29.333Z,1.32
2022-10-22T08:57:32.410Z,1.32
2022-10-22T08:58:35.215Z,1.32
2022-10-22T09:00:40.665Z,1.47
2022-10-22T09:01:43.664Z,1.32
2022-10-22T09:02:47.203Z,1.32
2022-10-22T09:04:21.888Z,1.02
2022-10-22T09:05:29.301Z,1.02
2022-10-22T09:06:32.327Z,1.32
2022-10-22T09:08:09.760Z,1.32
2022-10-22T09:09:13.236Z,1.17
2022-10-22T09:10:16.162Z,1.17
2022-10-22T09:11:50.778Z,1.17
2022-10-22T09:12:53.944Z,1.02
2022-10-22T09:13:56.885Z,1.17
2022-10-22T09:15:31.539Z,1.32
2022-10-22T09:16:34.718Z,1.32
2022-10-22T09:17:37.594Z,1.32
2022-10-22T09:19:12.996Z,1.32
2022-10-22T09:20:16.550Z,1.32
2022-10-22T09:21:19.633Z,1.32
2022-10-22T09:22:55.009Z,1.32
2022-10-22T09:23:58.324Z,1.32
2022-10-22T09:25:01.746Z,1.17
2022-10-22T09:26:37.235Z,1.02
2022-10-22T09:27:40.727Z,1.17
2022-10-22T09:28:43.827Z,1.32
2022-10-22T09:30:18.933Z,1.47
2022-10-22T09:31:21.804Z,1.32
2022-10-22T09:32:24.709Z,1.47
2022-10-22T09:33:59.575Z,1.17
2022-10-22T09:35:02.462Z,1.17
2022-10-22T09:36:05.508Z,1.17
2022-10-22T09:37:40.594Z,1.32
2022-10-22T09:38:44.025Z,1.32
2022-10-22T09:39:46.880Z,1.47
2022-10-22T09:41:21.828Z,1.47
2022-10-22T09:42:24.980Z,1.47
2022-10-22T09:43:27.969Z,1.32
2022-10-22T09:45:08.785Z,1.47
2022-10-22T09:46:12.262Z,1.905
2022-10-22T09:47:15.396Z,1.905
2022-10-22T09:49:11.690Z,1.47
2022-10-22T09:50:14.533Z,1.32
2022-10-22T09:51:17.646Z,1.47
2022-10-22T09:52:52.721Z,1.47
2022-10-22T09:53:55.913Z,1.32
2022-10-22T09:54:59.091Z,1.47
2022-10-22T09:56:34.178Z,1.47
2022-10-22T09:57:38.777Z,1.755
2022-10-22T09:58:44.087Z,1.47
2022-10-22T10:00:40.129Z,1.755
2022-10-22T10:01:43.128Z,1.905
2022-10-22T10:03:05.865Z,1.905
2022-10-22T10:04:42.251Z,1.905
2022-10-22T10:05:45.431Z,2.055
2022-10-22T10:06:48.300Z,2.055
2022-10-22T10:08:23.606Z,1.905
2022-10-22T10:09:27.200Z,1.755
2022-10-22T10:10:30.214Z,1.755
2022-10-22T10:12:05.217Z,1.755
2022-10-22T10:13:09.466Z,1.755
2022-10-22T10:14:12.249Z,2.055
2022-10-22T10:15:47.141Z,2.055
2022-10-22T10:16:50.379Z,1.905
2022-10-22T10:17:53.535Z,2.055
2022-10-22T10:19:28.295Z,2.055
2022-10-22T10:20:32.664Z,1.905
2022-10-22T10:21:35.856Z,1.905
2022-10-22T10:23:11.530Z,1.905
2022-10-22T10:24:14.857Z,2.055
2022-10-22T10:25:17.882Z,2.055
2022-10-22T10:26:53.478Z,2.19
2022-10-22T10:27:56.428Z,2.055
2022-10-22T10:28:59.426Z,2.055
2022-10-22T10:30:34.430Z,2.055
2022-10-22T10:31:37.508Z,2.055
2022-10-22T10:32:46.650Z,2.055
2022-10-22T10:34:21.584Z,1.905
2022-10-22T10:35:24.597Z,1.905
2022-10-22T10:36:27.576Z,1.755
2022-10-22T10:38:03.558Z,1.755
2022-10-22T10:39:06.620Z,1.47
2022-10-22T10:40:09.741Z,1.47
2022-10-22T10:41:44.745Z,1.47
2022-10-22T10:42:48.209Z,1.755
2022-10-22T10:43:51.191Z,1.47
2022-10-22T10:45:25.963Z,1.47
2022-10-22T10:46:30.308Z,1.32
2022-10-22T10:47:35.179Z,1.47
2022-10-22T10:49:10.088Z,1.47
2022-10-22T10:50:13.121Z,1.905
2022-10-22T10:51:16.383Z,1.755
2022-10-22T10:52:51.655Z,1.755
2022-10-22T10:53:54.885Z,1.905
2022-10-22T10:54:58.100Z,1.755
2022-10-22T10:56:35.584Z,1.755
2022-10-22T10:57:41.624Z,1.47
2022-10-22T10:58:44.748Z,1.47
2022-10-22T11:00:40.959Z,1.17
2022-10-22T11:01:44.442Z,1.02
2022-10-22T11:02:47.363Z,1.47
2022-10-22T11:04:22.411Z,1.47
2022-10-22T11:05:25.453Z,1.47
2022-10-22T11:06:31.487Z,1.905
2022-10-22T11:08:37.794Z,2.055
2022-10-22T11:09:41.019Z,2.055
2022-10-22T11:10:44.315Z,2.055
2022-10-22T11:12:19.317Z,2.055
2022-10-22T11:13:22.446Z,2.055
2022-10-22T11:14:27.895Z,2.055
2022-10-22T11:16:05.316Z,1.905
2022-10-22T11:17:08.541Z,1.755
2022-10-22T11:18:11.486Z,1.755
2022-10-22T11:20:17.307Z,1.755
2022-10-22T11:21:20.359Z,1.47
2022-10-22T11:22:26.644Z,1.755
2022-10-22T11:24:31.928Z,1.47
2022-10-22T11:25:35.139Z,1.47
2022-10-22T11:26:38.290Z,1.905
2022-10-22T11:28:22.886Z,1.755
2022-10-22T11:29:28.244Z,1.47
2022-10-22T11:30:33.612Z,1.47
2022-10-22T11:32:08.411Z,1.47
2022-10-22T11:33:11.914Z,1.47
2022-10-22T11:34:49.410Z,1.755
2022-10-22T11:36:29.103Z,1.47
2022-10-22T11:37:31.884Z,1.47
2022-10-22T11:38:40.649Z,1.47
2022-10-22T11:40:15.909Z,1.755
2022-10-22T11:41:18.788Z,1.47
2022-10-22T11:42:21.810Z,1.47
2022-10-22T11:43:56.766Z,1.47
2022-10-22T11:45:00.187Z,1.47
2022-10-22T11:46:03.205Z,1.47
2022-10-22T11:47:38.301Z,1.47
2022-10-22T11:48:41.724Z,1.47
2022-10-22T11:49:44.944Z,1.47
2022-10-22T11:51:19.846Z,1.905
2022-10-22T11:52:27.545Z,1.755
2022-10-22T11:53:30.718Z,1.905
2022-10-22T11:55:05.942Z,2.055
2022-10-22T11:56:09.110Z,1.905
2022-10-22T11:57:12.162Z,1.905
2022-10-22T11:58:50.849Z,1.755
2022-10-22T11:59:56.877Z,1.755
2022-10-22T12:00:40.754Z,1.905
2022-10-22T12:01:44.237Z,1.905
2022-10-22T12:02:47.985Z,1.905
2022-10-22T12:04:23.229Z,1.755
2022-10-22T12:05:26.233Z,1.755
2022-10-22T12:06:28.995Z,1.905
2022-10-22T12:08:04.318Z,1.905
2022-10-22T12:09:07.973Z,1.755
2022-10-22T12:10:12.925Z,1.905
2022-10-22T12:11:49.883Z,1.47
2022-10-22T12:12:53.484Z,1.47
2022-10-22T12:13:56.546Z,1.32
2022-10-22T12:15:31.166Z,1.17
2022-10-22T12:17:08.708Z,1.02
2022-10-22T12:18:11.878Z,0.885
2022-10-22T12:19:46.809Z,1.02
2022-10-22T12:20:50.295Z,1.17
2022-10-22T12:21:53.211Z,1.17
2022-10-22T12:23:27.996Z,1.32
2022-10-22T12:24:30.953Z,1.32
2022-10-22T12:25:40.328Z,1.32
2022-10-22T12:27:22.375Z,1.17
2022-10-22T12:28:25.950Z,1.17
2022-10-22T12:29:28.922Z,1.17
2022-10-22T12:31:04.002Z,1.17
2022-10-22T12:32:07.054Z,1.32
2022-10-22T12:33:10.056Z,1.47
2022-10-22T12:34:45.526Z,1.47
2022-10-22T12:35:48.766Z,1.47
2022-10-22T12:36:51.915Z,1.47
2022-10-22T12:38:26.996Z,1.47
2022-10-22T12:39:30.096Z,1.755
2022-10-22T12:40:33.021Z,1.905
2022-10-22T12:42:07.907Z,1.905
2022-10-22T12:43:11.338Z,1.47
2022-10-22T12:44:14.325Z,1.47
2022-10-22T12:45:49.047Z,1.47
2022-10-22T12:46:55.975Z,1.47
2022-10-22T12:48:00.630Z,1.47
2022-10-22T12:49:35.516Z,1.47
2022-10-22T12:50:38.693Z,1.47
2022-10-22T12:51:41.844Z,1.47
2022-10-22T12:53:21.870Z,1.47
2022-10-22T12:54:25.104Z,1.47
2022-10-22T12:55:27.889Z,1.32
2022-10-22T12:57:02.781Z,1.32
2022-10-22T12:58:05.726Z,1.32
2022-10-22T12:59:08.492Z,1.17
2022-10-22T13:00:40.516Z,1.32
2022-10-22T13:01:43.760Z,1.32
2022-10-22T13:02:47.349Z,1.17
2022-10-22T13:04:22.182Z,1.17
2022-10-22T13:05:25.387Z,1.17
2022-10-22T13:06:28.209Z,1.02
2022-10-22T13:08:02.892Z,1.02
2022-10-22T13:09:06.633Z,1.02
2022-10-22T13:10:09.993Z,1.02
2022-10-22T13:11:44.604Z,1.17
2022-10-22T13:12:47.719Z,1.02
2022-10-22T13:13:50.734Z,1.02
2022-10-22T13:15:25.698Z,1.17
2022-10-22T13:16:28.574Z,1.17
2022-10-22T13:17:31.602Z,1.32
2022-10-22T13:19:06.496Z,1.32
2022-10-22T13:20:09.485Z,1.17
2022-10-22T13:21:12.444Z,1.32
2022-10-22T13:22:47.100Z,1.32
2022-10-22T13:23:50.148Z,1.47
2022-10-22T13:24:53.175Z,1.32
2022-10-22T13:26:28.260Z,1.32
2022-10-22T13:27:31.244Z,1.32
2022-10-22T13:28:34.085Z,1.32
2022-10-22T13:30:08.943Z,1.32
2022-10-22T13:31:12.045Z,1.32
2022-10-22T13:32:14.990Z,1.32
2022-10-22T13:33:49.690Z,1.32
2022-10-22T13:34:52.717Z,1.32
2022-10-22T13:35:55.895Z,1.32
2022-10-22T13:37:30.791Z,1.32
2022-10-22T13:38:33.564Z,1.17
2022-10-22T13:39:36.549Z,1.32
2022-10-22T13:41:15.373Z,1.17
2022-10-22T13:42:18.262Z,1.17
2022-10-22T13:43:21.201Z,1.17
2022-10-22T13:44:56.238Z,1.17
2022-10-22T13:45:59.268Z,1.02
2022-10-22T13:47:02.478Z,1.02
2022-10-22T13:48:37.189Z,1.02
2022-10-22T13:49:40.108Z,1.02
2022-10-22T13:50:43.182Z,0.885
2022-10-22T13:52:18.145Z,1.02
2022-10-22T13:53:24.749Z,1.02
2022-10-22T13:54:27.747Z,0.885
2022-10-22T13:56:02.570Z,1.02
2022-10-22T13:57:06.066Z,1.02
2022-10-22T13:58:09.466Z,1.02
2022-10-22T13:59:49.577Z,0.885
2022-10-22T14:00:41.032Z,0.885
2022-10-22T14:01:44.223Z,0.885
2022-10-22T14:02:47.453Z,1.02
2022-10-22T14:04:22.466Z,0.885
2022-10-22T14:05:25.328Z,0.885
2022-10-22T14:06:28.538Z,0.885
2022-10-22T14:08:08.243Z,0.735
2022-10-22T14:09:12.028Z,0.735
2022-10-22T14:10:14.967Z,0.885
2022-10-22T14:11:50.245Z,0.885
2022-10-22T14:12:59.197Z,0.735
2022-10-22T14:14:02.104Z,0.735
2022-10-22T14:15:37.219Z,0.735
2022-10-22T14:16:40.297Z,0.735
2022-10-22T14:17:43.464Z,0.735
2022-10-22T14:19:18.334Z,0.735
2022-10-22T14:20:21.422Z,0.735
2022-10-22T14:21:24.410Z,0.735
2022-10-22T14:22:59.369Z,0.735
2022-10-22T14:24:02.598Z,0.585
2022-10-22T14:25:05.601Z,0.585
2022-10-22T14:26:40.888Z,0.735
2022-10-22T14:27:44.303Z,0.585
2022-10-22T14:29:20.958Z,0.585
2022-10-22T14:31:02.386Z,0.735
2022-10-22T14:32:07.003Z,0.585
2022-10-22T14:33:10.466Z,0.585
2022-10-22T14:34:46.970Z,0.585
2022-10-22T14:35:50.264Z,0.585
2022-10-22T14:36:53.346Z,0.735
2022-10-22T14:38:28.124Z,0.735
2022-10-22T14:39:31.452Z,0.585
2022-10-22T14:40:34.590Z,0.735
2022-10-22T14:42:09.723Z,0.585
2022-10-22T14:43:12.705Z,0.585
2022-10-22T14:44:15.804Z,0.585
2022-10-22T14:45:51.666Z,0.585
2022-10-22T14:46:54.804Z,0.585
2022-10-22T14:47:57.694Z,0.435
2022-10-22T14:49:33.697Z,0.585
2022-10-22T14:50:36.458Z,0.585
2022-10-22T14:51:39.552Z,0.435
2022-10-22T14:53:17.995Z,0.585
2022-10-22T14:54:21.009Z,0.435
2022-10-22T14:55:24.034Z,0.435
2022-10-22T14:56:59.943Z,0.435
2022-10-22T14:58:03.603Z,0.435
2022-10-22T14:59:06.517Z,0.435
2022-10-22T15:00:40.948Z,0.435
2022-10-22T15:01:44.127Z,0.435
2022-10-22T15:02:47.414Z,0.435
2022-10-22T15:04:22.684Z,0.435
2022-10-22T15:05:25.609Z,0.435
2022-10-22T15:06:28.601Z,0.435
2022-10-22T15:08:04.234Z,0.435
2022-10-22T15:09:07.748Z,0.435
2022-10-22T15:10:10.798Z,0.435
2022-10-22T15:11:45.837Z,0.435
2022-10-22T15:12:48.834Z,0.435
2022-10-22T15:13:51.778Z,0.435
2022-10-22T15:15:39.800Z,0.435
2022-10-22T15:16:43.300Z,0.435
2022-10-22T15:17:46.849Z,0.435
2022-10-22T15:19:21.569Z,0
2022-10-22T15:20:24.562Z,0.435
2022-10-22T15:21:27.706Z,0
2022-10-22T15:23:03.494Z,0.435
2022-10-22T15:24:06.328Z,0.435
2022-10-22T15:25:09.317Z,0
2022-10-22T15:26:44.073Z,0
2022-10-22T15:27:50.337Z,0.435
2022-10-22T15:28:54.750Z,0.435
2022-10-22T15:30:29.307Z,0
2022-10-22T15:31:32.288Z,0
2022-10-22T15:32:35.113Z,0
2022-10-22T15:34:13.310Z,0.435
2022-10-22T15:35:16.207Z,0
2022-10-22T15:36:19.008Z,0
2022-10-22T15:37:53.587Z,0
2022-10-22T15:38:56.674Z,0
2022-10-22T15:39:59.755Z,0
2022-10-22T15:41:34.610Z,0
2022-10-22T15:42:37.779Z,0
2022-10-22T15:43:41.134Z,0
2022-10-22T15:45:15.918Z,0
2022-10-22T15:46:19.039Z,0
2022-10-22T15:47:21.865Z,0
2022-10-22T15:49:01.639Z,0
2022-10-22T15:50:04.810Z,0
2022-10-22T15:51:08.021Z,0
2022-10-22T15:52:43.276Z,0
2022-10-22T15:53:46.226Z,0
2022-10-22T15:54:49.535Z,0
2022-10-22T15:56:24.462Z,0
2022-10-22T15:57:27.366Z,0
2022-10-22T15:58:32.477Z,0
2022-10-22T16:00:40.205Z,0
2022-10-22T16:01:43.959Z,0
2022-10-22T16:02:46.981Z,0
2022-10-22T16:04:22.490Z,0
2022-10-22T16:06:09.221Z,0
2022-10-22T16:07:12.570Z,0
2022-10-22T16:08:15.374Z,0
2022-10-22T16:09:50.396Z,0
2022-10-22T16:10:53.433Z,0
2022-10-22T16:11:56.626Z,0
2022-10-22T16:13:31.936Z,0
2022-10-22T16:14:35.057Z,0
2022-10-22T16:15:38.065Z,0
2022-10-22T16:17:12.899Z,0
2022-10-22T16:18:15.847Z,0
2022-10-22T16:19:18.804Z,0
2022-10-22T16:20:53.788Z,0
2022-10-22T16:21:57.417Z,0
2022-10-22T16:23:01.074Z,0
2022-10-22T16:24:36.160Z,0
2022-10-22T16:25:38.984Z,0
2022-10-22T16:26:41.675Z,0
2022-10-22T16:28:16.354Z,0
2022-10-22T16:29:19.347Z,0
2022-10-22T16:30:22.234Z,0
2022-10-22T16:31:57.225Z,0
2022-10-22T16:33:03.278Z,0
2022-10-22T16:34:12.860Z,0
2022-10-22T16:35:47.633Z,0
2022-10-22T16:37:54.116Z,0
2022-10-22T16:39:29.019Z,0
2022-10-22T16:40:36.360Z,0
2022-10-22T16:41:39.334Z,0
2022-10-22T16:43:14.361Z,0
2022-10-22T16:44:17.610Z,0
2022-10-22T16:45:20.793Z,0
2022-10-22T16:46:56.230Z,0
2022-10-22T16:48:00.282Z,0
2022-10-22T16:49:03.296Z,0
2022-10-22T16:50:38.199Z,0
2022-10-22T16:51:41.445Z,0
2022-10-22T16:52:44.523Z,0
2022-10-22T16:54:23.852Z,0
2022-10-22T16:55:26.979Z,0
2022-10-22T16:56:29.989Z,0
2022-10-22T16:58:05.461Z,0
2022-10-22T16:59:08.605Z,0
2022-10-22T17:00:40.074Z,0
2022-10-22T17:01:52.471Z,0
2022-10-22T17:02:56.204Z,0
2022-10-22T17:04:34.486Z,0
2022-10-22T17:05:37.584Z,0
2022-10-22T17:06:40.464Z,0
2022-10-22T17:08:15.733Z,0
2022-10-22T17:09:19.437Z,0
2022-10-22T17:12:02.033Z,0
2022-10-22T17:13:05.412Z,0
2022-10-22T17:14:08.323Z,0
2022-10-22T17:15:43.166Z,0
2022-10-22T17:16:46.022Z,0
2022-10-22T17:17:48.833Z,0
2022-10-22T17:19:23.935Z,0
2022-10-22T17:20:26.915Z,0
2022-10-22T17:21:29.766Z,0
2022-10-22T17:23:05.164Z,0
2022-10-22T17:24:08.156Z,0